Time;durP1;ratioP1;P1;durP2;ratioP2;P2;SDS_P1;SDS_P2;PMS_P1;PMS_P2;Temp;Humidity;BMP_temperature;BMP_pressure;BME280_temperature;BME280_humidity;BME280_pressure;Samples;Min_cycle;Max_cycle;Signal;HPM_P1;HPM_P2
2023/05/14 00:00:00;;;;;;;10.50;8.98;;;15.10;99.90;;;;;;4958721;28;20082;-73
2023/05/14 00:02:26;;;;;;;9.65;8.57;;;15.10;99.90;;;;;;4990651;28;20039;-78
2023/05/14 00:04:52;;;;;;;11.48;9.05;;;15.00;99.90;;;;;;4974387;28;20049;-77
2023/05/14 00:07:21;;;;;;;10.75;8.80;;;15.00;99.90;;;;;;4951330;28;20042;-74
2023/05/14 00:09:47;;;;;;;9.30;8.30;;;15.10;99.90;;;;;;4952605;28;20054;-78
2023/05/14 00:12:13;;;;;;;10.48;8.77;;;14.90;99.90;;;;;;4952337;28;20044;-78
2023/05/14 00:14:38;;;;;;;8.52;7.70;;;14.90;99.90;;;;;;4981406;28;20188;-79
2023/05/14 00:17:05;;;;;;;10.32;8.13;;;15.00;99.90;;;;;;4968617;28;20050;-77
2023/05/14 00:19:31;;;;;;;11.77;8.40;;;14.90;99.90;;;;;;4963710;28;20038;-78
2023/05/14 00:21:57;;;;;;;9.90;8.00;;;15.00;99.90;;;;;;4973605;28;20052;-79
2023/05/14 00:24:22;;;;;;;10.60;8.32;;;15.00;99.90;;;;;;4993889;28;20429;-80
2023/05/14 00:26:48;;;;;;;11.80;8.32;;;14.90;99.90;;;;;;5036873;28;20038;-76
2023/05/14 00:29:14;;;;;;;12.73;7.95;;;15.00;99.90;;;;;;4964223;28;20058;-74
2023/05/14 00:31:40;;;;;;;14.55;7.82;;;15.10;99.90;;;;;;4954086;28;20040;-76
2023/05/14 00:34:05;;;;;;;11.40;7.93;;;15.10;99.90;;;;;;4951004;28;20133;-77
2023/05/14 00:36:31;;;;;;;11.85;7.85;;;15.00;99.90;;;;;;4985682;28;20049;-76
2023/05/14 00:38:57;;;;;;;13.13;8.32;;;15.10;99.90;;;;;;4987914;28;20039;-81
2023/05/14 00:41:22;;;;;;;15.05;8.20;;;14.90;99.90;;;;;;4976995;28;20042;-80
2023/05/14 00:43:48;;;;;;;12.13;7.35;;;14.90;99.90;;;;;;4979002;28;20034;-78
2023/05/14 00:46:15;;;;;;;11.38;7.65;;;15.00;99.90;;;;;;4953942;28;20087;-74
2023/05/14 00:48:41;;;;;;;8.68;7.43;;;15.00;99.90;;;;;;4960457;28;20049;-76
2023/05/14 00:51:07;;;;;;;9.95;8.00;;;15.00;99.90;;;;;;4948380;28;20031;-75
2023/05/14 00:53:34;;;;;;;11.23;7.78;;;14.90;99.90;;;;;;4960487;28;20047;-76
2023/05/14 00:56:00;;;;;;;11.77;7.07;;;14.90;99.90;;;;;;5015101;28;20050;-75
2023/05/14 00:58:26;;;;;;;10.48;7.57;;;14.80;99.90;;;;;;4943886;28;20043;-76
2023/05/14 01:00:52;;;;;;;11.48;7.60;;;14.80;99.90;;;;;;4963156;28;20046;-75
2023/05/14 01:03:17;;;;;;;11.88;7.75;;;14.60;99.90;;;;;;4945331;28;20514;-78
2023/05/14 01:05:57;;;;;;;11.07;7.03;;;14.80;99.90;;;;;;4943314;28;20043;-75
2023/05/14 01:08:48;;;;;;;8.93;7.05;;;14.60;99.90;;;;;;4963274;28;20100;-79
2023/05/14 01:11:21;;;;;;;8.57;6.47;;;14.70;99.90;;;;;;4993702;28;20039;-76
2023/05/14 01:14:03;;;;;;;7.43;6.65;;;14.70;99.90;;;;;;4946619;28;20042;-76
2023/05/14 01:16:32;;;;;;;10.18;7.00;;;14.60;99.90;;;;;;4972675;28;20108;-77
2023/05/14 01:19:00;;;;;;;9.57;6.80;;;14.70;99.90;;;;;;4956931;28;20134;-80
2023/05/14 01:21:42;;;;;;;9.90;6.97;;;14.60;99.90;;;;;;4962341;28;20046;-75
2023/05/14 01:24:07;;;;;;;11.25;7.03;;;14.70;99.90;;;;;;4943968;28;20045;-76
2023/05/14 01:26:35;;;;;;;10.55;7.43;;;14.60;99.90;;;;;;4945781;28;20039;-81
2023/05/14 01:29:22;;;;;;;8.75;6.95;;;14.60;99.90;;;;;;4945804;28;20053;-77
2023/05/14 01:31:49;;;;;;;11.18;6.75;;;14.70;99.90;;;;;;4964703;28;20058;-80
2023/05/14 01:34:19;;;;;;;12.48;7.40;;;14.70;99.90;;;;;;4946739;28;20574;-79
2023/05/14 01:36:47;;;;;;;8.15;6.38;;;14.50;99.90;;;;;;4976497;28;20047;-75
2023/05/14 01:39:14;;;;;;;10.48;6.20;;;14.70;99.90;;;;;;4936951;28;20043;-76
2023/05/14 01:41:41;;;;;;;13.38;7.13;;;14.60;99.90;;;;;;4944937;28;20050;-75
2023/05/14 01:44:11;;;;;;;11.93;7.50;;;14.50;99.90;;;;;;4949378;28;20031;-76
2023/05/14 01:46:36;;;;;;;11.02;6.68;;;14.50;99.90;;;;;;4949970;28;20055;-76
2023/05/14 01:49:02;;;;;;;9.18;7.13;;;14.50;99.90;;;;;;4978362;28;20481;-76
2023/05/14 01:51:31;;;;;;;11.80;7.15;;;14.30;99.90;;;;;;4932603;28;20099;-79
2023/05/14 01:53:57;;;;;;;9.95;7.00;;;14.40;99.90;;;;;;4930326;28;20092;-74
2023/05/14 01:56:24;;;;;;;9.38;6.70;;;14.40;99.90;;;;;;4955049;28;20039;-78
2023/05/14 01:58:50;;;;;;;10.10;6.70;;;14.40;99.90;;;;;;4944472;28;20039;-75
2023/05/14 02:01:15;;;;;;;13.90;7.18;;;14.40;99.90;;;;;;4937132;28;20124;-74
2023/05/14 02:03:41;;;;;;;7.32;5.90;;;14.40;99.90;;;;;;4961569;28;20091;-76
2023/05/14 02:06:07;;;;;;;10.27;7.82;;;14.30;99.90;;;;;;4936315;28;20038;-75
2023/05/14 02:08:33;;;;;;;10.27;6.45;;;14.20;99.90;;;;;;4926390;28;20097;-77
2023/05/14 02:10:58;;;;;;;9.88;6.68;;;14.20;99.90;;;;;;4952824;28;20411;-76
2023/05/14 02:13:27;;;;;;;12.93;7.50;;;14.30;99.90;;;;;;4931957;28;20035;-76
2023/05/14 02:15:53;;;;;;;11.85;8.40;;;14.40;99.90;;;;;;4933747;28;20091;-75
2023/05/14 02:18:18;;;;;;;10.27;7.65;;;14.20;99.90;;;;;;4932825;28;20122;-78
2023/05/14 02:20:45;;;;;;;8.63;7.40;;;14.20;99.90;;;;;;4953308;28;20085;-78
2023/05/14 02:23:11;;;;;;;10.07;7.22;;;14.20;99.90;;;;;;4936938;29;20047;-75
2023/05/14 02:25:36;;;;;;;12.57;8.70;;;14.50;99.90;;;;;;4953317;28;20380;-76
2023/05/14 02:28:02;;;;;;;10.60;7.85;;;14.20;99.90;;;;;;4927498;28;20043;-76
2023/05/14 02:30:30;;;;;;;12.02;8.77;;;14.50;99.90;;;;;;4961653;28;20066;-74
2023/05/14 02:32:55;;;;;;;14.25;8.50;;;14.40;99.90;;;;;;5016353;28;20097;-75
2023/05/14 02:35:21;;;;;;;17.63;8.75;;;14.20;99.90;;;;;;4942208;28;20039;-77
2023/05/14 02:37:47;;;;;;;12.77;8.43;;;14.40;99.90;;;;;;4932812;28;20394;-75
2023/05/14 02:40:13;;;;;;;15.27;8.43;;;14.40;99.90;;;;;;5019937;28;20444;-75
2023/05/14 02:42:39;;;;;;;12.93;8.15;;;14.20;99.90;;;;;;4950177;28;20039;-78
2023/05/14 02:45:05;;;;;;;11.40;8.45;;;14.40;99.90;;;;;;4957712;28;20219;-76
2023/05/14 02:47:31;;;;;;;11.98;8.85;;;14.10;99.90;;;;;;5013520;28;20397;-75
2023/05/14 02:49:57;;;;;;;14.50;8.05;;;14.20;99.90;;;;;;4955828;28;20035;-78
2023/05/14 02:52:22;;;;;;;11.82;8.38;;;14.30;99.90;;;;;;4984674;28;20091;-79
2023/05/14 02:54:48;;;;;;;11.88;8.05;;;14.20;99.90;;;;;;4975146;28;20045;-74
2023/05/14 02:57:14;;;;;;;16.17;8.63;;;14.20;99.90;;;;;;4980304;28;20056;-75
2023/05/14 02:59:40;;;;;;;16.65;8.40;;;13.90;99.90;;;;;;4981366;28;20041;-78
2023/05/14 03:02:06;;;;;;;12.85;8.38;;;14.10;99.90;;;;;;4981045;28;20052;-74
2023/05/14 03:04:31;;;;;;;13.45;8.80;;;14.10;99.90;;;;;;4984469;28;20117;-78
2023/05/14 03:06:57;;;;;;;15.82;8.57;;;14.10;99.90;;;;;;4983484;28;20415;-75
2023/05/14 03:09:22;;;;;;;12.85;8.00;;;14.20;99.90;;;;;;4978568;28;20111;-75
2023/05/14 03:11:49;;;;;;;18.42;8.40;;;14.10;99.90;;;;;;4965235;28;20444;-78
2023/05/14 03:14:14;;;;;;;14.98;8.32;;;14.20;99.90;;;;;;5046595;28;20637;-79
2023/05/14 03:16:41;;;;;;;14.88;8.43;;;14.10;99.90;;;;;;4979979;28;20038;-79
2023/05/14 03:19:08;;;;;;;13.43;8.88;;;14.20;99.90;;;;;;4987670;28;20041;-73
2023/05/14 03:21:34;;;;;;;14.90;8.20;;;14.00;99.90;;;;;;5003374;28;20494;-77
2023/05/14 03:23:59;;;;;;;19.48;9.70;;;14.20;99.90;;;;;;5045265;28;20114;-77
2023/05/14 03:26:25;;;;;;;22.08;9.55;;;14.20;99.90;;;;;;4971852;28;20039;-76
2023/05/14 03:28:51;;;;;;;17.83;9.07;;;14.20;99.90;;;;;;4966517;28;20038;-78
2023/05/14 03:31:17;;;;;;;18.40;9.05;;;14.20;99.90;;;;;;4970551;28;20078;-73
2023/05/14 03:33:42;;;;;;;17.30;8.85;;;14.10;99.90;;;;;;4982019;28;20035;-79
2023/05/14 03:36:11;;;;;;;18.45;9.30;;;14.40;99.90;;;;;;4986930;28;20046;-76
2023/05/14 03:38:39;;;;;;;18.70;9.25;;;14.20;99.90;;;;;;5007353;28;20060;-75
2023/05/14 03:41:05;;;;;;;10.85;8.65;;;14.10;99.90;;;;;;4981054;28;20533;-79
2023/05/14 03:43:31;;;;;;;15.32;8.43;;;14.40;99.90;;;;;;4977971;28;20371;-82
2023/05/14 03:45:56;;;;;;;16.40;8.63;;;14.20;99.90;;;;;;4995648;28;20123;-74
2023/05/14 03:48:22;;;;;;;12.70;8.85;;;14.10;99.90;;;;;;4961917;28;20070;-82
2023/05/14 03:50:48;;;;;;;16.60;9.10;;;14.10;99.90;;;;;;4990317;28;20038;-75
2023/05/14 03:53:13;;;;;;;11.80;8.65;;;14.10;99.90;;;;;;4980237;28;20038;-77
2023/05/14 03:55:39;;;;;;;15.40;7.90;;;14.20;99.90;;;;;;4968539;28;20125;-80
2023/05/14 03:58:09;;;;;;;10.88;8.15;;;14.00;99.90;;;;;;4972081;28;20046;-73
2023/05/14 04:00:35;;;;;;;12.18;6.75;;;13.90;99.90;;;;;;4977908;28;20050;-77
2023/05/14 04:03:01;;;;;;;11.38;6.95;;;14.00;99.90;;;;;;4984747;28;20041;-74
2023/05/14 04:05:26;;;;;;;11.27;8.07;;;14.10;99.90;;;;;;4977242;28;20042;-73
2023/05/14 04:07:52;;;;;;;12.73;8.80;;;13.80;99.90;;;;;;4986875;28;20061;-74
2023/05/14 04:10:18;;;;;;;13.98;8.75;;;14.10;99.90;;;;;;4946493;28;20034;-79
2023/05/14 04:12:43;;;;;;;20.27;10.02;;;13.80;99.90;;;;;;4962996;28;20046;-79
2023/05/14 04:15:09;;;;;;;14.55;9.40;;;13.80;99.90;;;;;;4963892;28;20170;-75
2023/05/14 04:17:35;;;;;;;15.05;8.73;;;13.80;99.90;;;;;;4949181;28;20077;-76
2023/05/14 04:20:01;;;;;;;15.02;9.35;;;14.20;99.90;;;;;;5013862;28;20078;-76
2023/05/14 04:22:26;;;;;;;20.67;9.43;;;14.00;99.90;;;;;;5001523;28;20042;-80
2023/05/14 04:24:52;;;;;;;17.73;9.77;;;14.30;99.90;;;;;;4962077;28;20103;-72
2023/05/14 04:27:21;;;;;;;19.77;11.68;;;14.10;99.90;;;;;;4993437;28;20121;-79
2023/05/14 04:29:48;;;;;;;17.88;11.68;;;14.20;99.90;;;;;;4962950;28;20045;-78
2023/05/14 04:32:13;;;;;;;16.02;11.10;;;14.00;99.90;;;;;;4968009;28;20366;-80
2023/05/14 04:34:41;;;;;;;19.48;11.45;;;14.20;99.90;;;;;;4960542;28;20042;-76
2023/05/14 04:37:07;;;;;;;18.35;11.77;;;14.20;99.90;;;;;;5007280;28;20125;-74
2023/05/14 04:39:33;;;;;;;18.50;11.30;;;14.10;99.90;;;;;;4967826;28;20053;-76
2023/05/14 04:41:59;;;;;;;18.15;10.93;;;14.40;99.90;;;;;;4957492;28;20046;-81
2023/05/14 04:44:25;;;;;;;19.23;10.77;;;14.20;99.90;;;;;;4965343;28;20070;-74
2023/05/14 04:46:50;;;;;;;13.60;10.15;;;14.60;99.90;;;;;;5015070;28;20053;-76
2023/05/14 04:49:16;;;;;;;17.98;10.60;;;14.50;99.90;;;;;;4976398;28;20471;-72
2023/05/14 04:51:42;;;;;;;17.75;10.20;;;14.40;99.90;;;;;;4974232;28;20104;-78
2023/05/14 04:54:08;;;;;;;15.65;10.50;;;14.20;99.90;;;;;;4964304;28;20045;-78
2023/05/14 04:56:33;;;;;;;19.52;10.57;;;14.60;99.90;;;;;;4958258;28;20049;-74
2023/05/14 04:58:59;;;;;;;17.52;10.43;;;14.70;99.90;;;;;;4952627;28;20030;-76
2023/05/14 05:01:24;;;;;;;16.30;10.45;;;14.70;99.90;;;;;;4964809;28;20064;-75
2023/05/14 05:03:51;;;;;;;14.32;9.90;;;14.60;99.90;;;;;;4975636;28;20440;-80
2023/05/14 05:06:17;;;;;;;16.10;9.98;;;14.80;99.90;;;;;;4997224;28;20129;-74
2023/05/14 05:08:42;;;;;;;15.38;9.52;;;15.20;99.90;;;;;;4956381;28;20142;-75
2023/05/14 05:11:08;;;;;;;19.08;10.15;;;15.00;99.90;;;;;;4977810;28;20121;-76
2023/05/14 05:13:34;;;;;;;17.33;10.20;;;14.80;99.90;;;;;;4978784;28;20037;-82
2023/05/14 05:15:59;;;;;;;17.02;9.13;;;15.00;99.90;;;;;;4953006;28;20038;-78
2023/05/14 05:18:25;;;;;;;14.82;9.40;;;15.10;99.90;;;;;;4987198;28;20048;-76
2023/05/14 05:20:51;;;;;;;17.67;10.35;;;15.30;99.90;;;;;;4983919;28;21916;-76
2023/05/14 05:23:16;;;;;;;17.05;10.50;;;15.10;99.90;;;;;;4970578;28;20623;-75
2023/05/14 05:25:42;;;;;;;25.42;11.25;;;15.10;99.90;;;;;;4953557;28;20053;-78
2023/05/14 05:28:08;;;;;;;19.23;10.05;;;15.80;99.90;;;;;;4986235;28;20101;-82
2023/05/14 05:30:33;;;;;;;18.42;10.27;;;15.50;99.90;;;;;;4978818;28;20129;-76
2023/05/14 05:32:59;;;;;;;21.33;10.98;;;15.50;99.90;;;;;;4995265;28;20473;-78
2023/05/14 05:35:25;;;;;;;16.08;9.82;;;15.80;99.90;;;;;;4993612;28;20041;-81
2023/05/14 05:37:50;;;;;;;18.83;9.88;;;16.20;99.90;;;;;;4969441;28;20045;-78
2023/05/14 05:40:16;;;;;;;18.13;9.88;;;15.60;99.90;;;;;;4985565;28;20048;-78
2023/05/14 05:42:42;;;;;;;21.25;9.70;;;16.20;99.90;;;;;;5004515;28;20133;-80
2023/05/14 05:45:08;;;;;;;14.15;9.63;;;15.70;99.90;;;;;;4970051;28;20120;-79
2023/05/14 05:47:35;;;;;;;16.98;9.85;;;16.20;99.90;;;;;;4963558;28;20465;-76
2023/05/14 05:50:01;;;;;;;14.85;9.43;;;16.30;99.90;;;;;;4972785;28;20038;-74
2023/05/14 05:52:27;;;;;;;14.35;9.20;;;16.60;99.90;;;;;;4964379;28;20104;-79
2023/05/14 05:54:52;;;;;;;20.60;9.38;;;16.10;99.90;;;;;;4981554;28;20043;-75
2023/05/14 05:57:18;;;;;;;14.35;8.60;;;16.50;99.90;;;;;;5010502;28;20045;-78
2023/05/14 05:59:44;;;;;;;17.30;9.43;;;16.90;99.90;;;;;;4996247;28;20042;-78
2023/05/14 06:02:09;;;;;;;14.25;8.93;;;16.90;99.90;;;;;;5054104;28;20102;-76
2023/05/14 06:04:35;;;;;;;20.02;9.75;;;17.10;99.90;;;;;;4979124;28;20050;-76
2023/05/14 06:07:01;;;;;;;18.80;8.73;;;16.80;99.90;;;;;;4966785;28;20066;-74
2023/05/14 06:09:26;;;;;;;18.33;7.97;;;16.90;99.90;;;;;;4981694;28;20046;-73
2023/05/14 06:11:52;;;;;;;18.60;8.52;;;17.00;99.90;;;;;;4966426;28;20041;-73
2023/05/14 06:14:18;;;;;;;13.15;8.20;;;16.80;99.90;;;;;;4977209;28;20038;-75
2023/05/14 06:16:43;;;;;;;15.60;9.13;;;16.70;99.90;;;;;;4980990;28;20081;-78
2023/05/14 06:19:09;;;;;;;17.55;8.13;;;17.30;99.90;;;;;;4971754;28;20107;-77
2023/05/14 06:21:35;;;;;;;16.63;8.75;;;17.40;99.90;;;;;;4980671;28;20046;-80
2023/05/14 06:24:01;;;;;;;15.85;8.05;;;17.20;99.90;;;;;;4977654;28;20064;-77
2023/05/14 06:26:27;;;;;;;15.52;8.27;;;17.70;99.90;;;;;;4992629;28;20039;-76
2023/05/14 06:28:53;;;;;;;13.80;6.93;;;16.90;99.90;;;;;;5048433;28;20087;-78
2023/05/14 06:31:18;;;;;;;16.55;7.90;;;17.40;99.90;;;;;;4987389;28;20065;-78
2023/05/14 06:33:44;;;;;;;14.93;7.38;;;17.30;99.90;;;;;;4986156;28;20042;-81
2023/05/14 06:36:10;;;;;;;9.65;6.85;;;17.40;99.90;;;;;;4980092;28;20040;-78
2023/05/14 06:38:36;;;;;;;11.15;6.93;;;18.10;99.90;;;;;;4998833;28;20046;-79
2023/05/14 06:41:02;;;;;;;14.00;6.90;;;17.70;99.90;;;;;;4999173;28;20124;-77
2023/05/14 06:43:27;;;;;;;14.27;6.60;;;17.70;99.90;;;;;;4998366;28;20590;-75
2023/05/14 06:45:53;;;;;;;12.65;7.57;;;18.50;99.90;;;;;;4981999;28;20042;-79
2023/05/14 06:48:19;;;;;;;14.25;7.50;;;18.70;99.90;;;;;;4972764;28;20391;-76
2023/05/14 06:50:46;;;;;;;12.07;6.43;;;19.00;99.90;;;;;;4989191;28;20069;-81
2023/05/14 06:53:12;;;;;;;11.77;6.63;;;19.00;99.90;;;;;;5084865;28;20064;-82
2023/05/14 06:55:38;;;;;;;11.07;6.57;;;18.60;99.90;;;;;;4963328;28;20046;-76
2023/05/14 06:58:07;;;;;;;9.13;5.68;;;18.50;99.90;;;;;;4955216;28;20042;-77
2023/05/14 07:00:33;;;;;;;11.48;6.15;;;18.70;99.90;;;;;;4995494;28;20050;-78
2023/05/14 07:02:59;;;;;;;11.23;5.78;;;18.50;99.90;;;;;;4988732;28;20057;-76
2023/05/14 07:05:25;;;;;;;7.40;5.63;;;18.80;99.90;;;;;;4997713;28;20042;-76
2023/05/14 07:07:51;;;;;;;16.73;5.97;;;19.30;99.90;;;;;;4976723;28;20046;-75
2023/05/14 07:10:20;;;;;;;10.68;6.10;;;19.10;99.90;;;;;;4981638;28;20085;-75
2023/05/14 07:12:45;;;;;;;12.30;6.47;;;19.50;99.90;;;;;;4975693;28;20080;-81
2023/05/14 07:15:11;;;;;;;12.45;6.28;;;19.10;99.90;;;;;;4980205;28;20037;-78
2023/05/14 07:17:37;;;;;;;13.40;6.30;;;19.70;99.90;;;;;;4974737;28;20129;-76
2023/05/14 07:20:03;;;;;;;9.82;5.85;;;19.20;99.90;;;;;;4959205;28;20042;-79
2023/05/14 07:22:28;;;;;;;10.45;5.85;;;19.40;99.90;;;;;;4981319;28;20052;-77
2023/05/14 07:24:57;;;;;;;12.15;6.68;;;19.10;99.90;;;;;;4965011;28;20045;-76
2023/05/14 07:27:23;;;;;;;13.55;6.03;;;19.30;99.90;;;;;;4978568;28;20042;-78
2023/05/14 07:29:52;;;;;;;11.80;6.57;;;19.50;99.90;;;;;;4994557;28;20640;-76
2023/05/14 07:32:18;;;;;;;8.73;6.00;;;19.60;99.90;;;;;;4983184;28;20043;-77
2023/05/14 07:34:44;;;;;;;14.27;6.53;;;19.90;99.90;;;;;;4981350;28;20096;-74
2023/05/14 07:37:09;;;;;;;14.52;6.15;;;19.60;99.90;;;;;;4973547;28;20052;-76
2023/05/14 07:39:44;;;;;;;10.18;6.43;;;19.80;99.90;;;;;;4989715;28;20421;-75
2023/05/14 07:42:10;;;;;;;12.73;6.43;;;19.70;99.90;;;;;;4968752;28;20046;-76
2023/05/14 07:44:35;;;;;;;10.38;6.10;;;20.00;99.90;;;;;;5054403;28;20042;-80
2023/05/14 07:47:02;;;;;;;8.45;6.25;;;20.00;99.90;;;;;;5001777;28;20079;-76
2023/05/14 07:49:28;;;;;;;8.07;6.10;;;20.20;99.90;;;;;;4955613;28;20038;-76
2023/05/14 07:51:54;;;;;;;9.95;6.30;;;20.40;99.90;;;;;;4988448;28;20045;-76
2023/05/14 07:54:20;;;;;;;10.07;6.05;;;19.80;99.90;;;;;;4972073;28;20058;-81
2023/05/14 07:56:45;;;;;;;14.25;7.13;;;20.10;99.90;;;;;;4964645;28;20121;-79
2023/05/14 07:59:11;;;;;;;11.38;6.70;;;20.30;99.90;;;;;;4950990;28;20482;-79
2023/05/14 08:01:37;;;;;;;14.10;7.05;;;20.40;99.90;;;;;;4988104;28;20091;-76
2023/05/14 08:04:03;;;;;;;10.35;6.55;;;20.40;99.90;;;;;;4948267;28;20030;-80
2023/05/14 08:06:28;;;;;;;10.50;6.43;;;20.20;99.90;;;;;;4938962;28;20041;-80
2023/05/14 08:08:54;;;;;;;8.95;6.15;;;20.10;99.90;;;;;;4972761;28;20046;-75
2023/05/14 08:11:21;;;;;;;10.68;6.88;;;20.70;99.90;;;;;;4971167;28;20083;-78
2023/05/14 08:13:46;;;;;;;10.85;7.18;;;20.80;99.90;;;;;;4946486;28;20048;-75
2023/05/14 08:16:12;;;;;;;10.98;6.88;;;20.60;99.90;;;;;;4981334;28;20049;-78
2023/05/14 08:18:38;;;;;;;8.48;6.28;;;20.60;99.90;;;;;;4983454;28;20086;-82
2023/05/14 08:21:04;;;;;;;10.32;6.57;;;20.60;99.90;;;;;;5068057;28;20038;-75
2023/05/14 08:23:32;;;;;;;10.63;6.85;;;20.60;99.90;;;;;;4968073;28;20046;-76
2023/05/14 08:25:58;;;;;;;9.52;6.82;;;20.60;99.90;;;;;;4985636;28;20406;-77
2023/05/14 08:28:24;;;;;;;8.82;6.55;;;21.10;99.90;;;;;;4965743;28;20121;-77
2023/05/14 08:30:50;;;;;;;10.85;6.82;;;21.20;99.90;;;;;;5034319;28;20100;-78
2023/05/14 08:33:17;;;;;;;10.95;7.10;;;21.00;99.90;;;;;;4985508;28;20065;-78
2023/05/14 08:35:43;;;;;;;9.27;6.95;;;21.30;99.90;;;;;;4983831;28;20056;-79
2023/05/14 08:38:08;;;;;;;10.00;6.10;;;21.40;99.90;;;;;;4970534;28;20042;-79
2023/05/14 08:40:34;;;;;;;14.40;7.10;;;21.60;99.90;;;;;;4981023;28;20041;-76
2023/05/14 08:43:00;;;;;;;9.80;6.65;;;21.00;99.90;;;;;;4991286;28;20099;-80
2023/05/14 08:45:32;;;;;;;7.50;6.43;;;21.40;99.90;;;;;;4988699;28;20042;-77
2023/05/14 08:48:00;;;;;;;7.90;6.68;;;21.10;99.90;;;;;;4966273;28;20050;-77
2023/05/14 08:50:28;;;;;;;8.48;6.10;;;21.30;99.90;;;;;;4979043;28;20116;-80
2023/05/14 08:52:54;;;;;;;7.53;6.72;;;21.60;99.90;;;;;;5056123;28;20045;-79
2023/05/14 08:55:21;;;;;;;6.88;6.00;;;21.70;99.90;;;;;;4997319;28;20044;-75
2023/05/14 08:57:50;;;;;;;10.50;6.57;;;21.70;99.90;;;;;;4970159;28;20102;-77
2023/05/14 09:00:17;;;;;;;10.32;6.40;;;21.90;99.90;;;;;;4988047;28;20049;-78
2023/05/14 09:02:45;;;;;;;7.63;6.50;;;21.60;99.90;;;;;;4967162;28;20052;-75
2023/05/14 09:05:11;;;;;;;9.52;6.38;;;21.60;99.90;;;;;;4987915;28;20497;-78
2023/05/14 09:07:37;;;;;;;11.98;6.07;;;22.00;99.90;;;;;;4967996;28;20037;-75
2023/05/14 09:10:03;;;;;;;7.25;5.70;;;22.10;99.90;;;;;;4998278;28;20068;-79
2023/05/14 09:12:30;;;;;;;7.97;5.95;;;22.30;99.90;;;;;;4986020;28;20662;-82
2023/05/14 09:14:55;;;;;;;8.60;6.07;;;22.50;99.90;;;;;;4971991;28;20050;-78
2023/05/14 09:17:25;;;;;;;8.70;5.88;;;22.40;99.90;;;;;;4972006;28;20038;-80
2023/05/14 09:19:51;;;;;;;9.30;5.65;;;22.40;99.90;;;;;;4972272;28;20052;-77
2023/05/14 09:22:17;;;;;;;8.18;6.20;;;22.60;99.90;;;;;;4985846;28;20050;-81
2023/05/14 09:24:43;;;;;;;6.93;5.70;;;22.60;99.90;;;;;;4949298;28;20460;-81
2023/05/14 09:27:18;;;;;;;6.95;5.72;;;23.00;99.90;;;;;;4971853;28;20402;-80
2023/05/14 09:29:44;;;;;;;9.75;6.88;;;22.80;99.90;;;;;;4972133;28;20162;-80
2023/05/14 09:32:10;;;;;;;9.25;6.90;;;22.80;99.90;;;;;;4955224;28;20485;-78
2023/05/14 09:34:39;;;;;;;9.18;6.88;;;22.50;99.90;;;;;;4991549;28;20045;-78
2023/05/14 09:37:07;;;;;;;8.52;7.28;;;23.40;99.90;;;;;;4960823;28;20417;-79
2023/05/14 09:39:37;;;;;;;7.53;6.57;;;23.80;99.90;;;;;;4972344;28;20034;-79
2023/05/14 09:42:03;;;;;;;10.10;6.22;;;23.20;99.90;;;;;;4955886;28;20048;-79
2023/05/14 09:44:29;;;;;;;8.07;7.10;;;23.40;99.90;;;;;;4954566;28;20063;-80
2023/05/14 09:46:55;;;;;;;10.23;6.90;;;23.50;99.90;;;;;;4975839;28;20194;-78
2023/05/14 09:49:23;;;;;;;7.20;6.32;;;24.00;99.90;;;;;;4972408;28;20045;-81
2023/05/14 09:51:49;;;;;;;7.45;6.40;;;24.60;99.90;;;;;;4954636;28;20044;-79
2023/05/14 09:54:18;;;;;;;9.98;7.75;;;24.70;99.90;;;;;;4970885;28;20130;-78
2023/05/14 09:56:44;;;;;;;10.52;7.10;;;24.80;99.90;;;;;;4967390;28;20044;-79
2023/05/14 09:59:10;;;;;;;8.07;7.30;;;25.00;99.90;;;;;;5001605;28;20504;-79
2023/05/14 10:01:37;;;;;;;11.02;6.90;;;25.00;99.90;;;;;;4987450;28;20042;-79
2023/05/14 10:04:05;;;;;;;9.10;7.20;;;24.80;99.90;;;;;;4966564;28;20111;-79
2023/05/14 10:06:35;;;;;;;8.07;7.28;;;24.80;99.90;;;;;;4981172;28;20099;-80
2023/05/14 10:09:04;;;;;;;7.93;6.30;;;24.80;99.90;;;;;;4978935;28;20045;-78
2023/05/14 10:11:32;;;;;;;7.85;7.10;;;24.90;99.90;;;;;;4971688;28;20069;-78
2023/05/14 10:14:17;;;;;;;9.52;7.88;;;25.00;99.90;;;;;;4967725;28;20077;-80
2023/05/14 10:16:45;;;;;;;;;;;24.60;99.90;;;;;;4969802;28;20041;-78
2023/05/14 10:19:14;;;;;;;6.80;6.07;;;24.00;99.90;;;;;;5019532;28;19978;-79
2023/05/14 10:21:43;;;;;;;7.65;6.85;;;24.70;99.90;;;;;;4990904;28;20136;-78
2023/05/14 10:24:10;;;;;;;8.18;6.85;;;25.40;99.90;;;;;;5022336;28;20061;-79
2023/05/14 10:26:38;;;;;;;7.55;6.85;;;25.40;99.90;;;;;;5003143;28;20125;-77
2023/05/14 10:29:09;;;;;;;6.68;5.90;;;25.20;99.90;;;;;;5004797;28;20043;-79
2023/05/14 10:31:54;;;;;;;6.60;6.00;;;25.30;99.90;;;;;;5056982;28;20038;-80
2023/05/14 10:34:42;;;;;;;6.38;5.40;;;25.10;99.90;;;;;;4967477;28;20083;-80
2023/05/14 10:37:26;;;;;;;6.15;4.03;;;24.90;46.70;;;;;;4989768;28;20496;-80
2023/05/14 10:39:57;;;;;;;5.85;5.00;;;24.70;1.00;;;;;;4992141;28;20126;-79
2023/05/14 10:42:42;;;;;;;5.47;4.97;;;24.60;20.10;;;;;;4989091;28;20042;-79
2023/05/14 10:45:10;;;;;;;8.60;4.80;;;24.90;20.10;;;;;;4998904;28;20038;-78
2023/05/14 10:47:41;;;;;;;6.45;4.70;;;24.50;1.00;;;;;;5017752;28;20050;-79
2023/05/14 10:50:09;;;;;;;5.32;4.70;;;24.70;1.00;;;;;;4996649;28;20048;-77
2023/05/14 10:52:36;;;;;;;6.18;4.45;;;24.70;1.00;;;;;;4990934;28;20042;-78
2023/05/14 10:55:06;;;;;;;5.03;4.60;;;25.10;1.00;;;;;;4974680;28;20038;-79
2023/05/14 10:57:33;;;;;;;5.50;4.95;;;25.10;1.00;;;;;;4974146;28;20045;-78
2023/05/14 11:00:00;;;;;;;6.80;5.32;;;25.00;1.00;;;;;;4974678;28;20045;-79
2023/05/14 11:02:32;;;;;;;5.93;4.93;;;25.20;1.00;;;;;;4988454;28;20042;-78
2023/05/14 11:05:05;;;;;;;5.32;4.53;;;25.20;99.90;;;;;;4973148;28;20053;-78
2023/05/14 11:07:35;;;;;;;5.68;4.82;;;25.40;99.90;;;;;;4974439;28;20140;-79
2023/05/14 11:10:05;;;;;;;7.50;4.55;;;25.90;99.90;;;;;;4963184;28;20038;-79
2023/05/14 11:12:32;;;;;;;4.60;4.20;;;26.30;71.60;;;;;;4972077;28;20132;-79
2023/05/14 11:15:02;;;;;;;5.07;4.68;;;26.20;99.90;;;;;;5017795;28;20039;-80
2023/05/14 11:17:30;;;;;;;5.05;4.20;;;26.20;99.90;;;;;;4973091;28;20069;-79
2023/05/14 11:19:56;;;;;;;4.82;4.22;;;26.20;28.00;;;;;;4995608;28;20373;-80
2023/05/14 11:22:23;;;;;;;6.78;4.68;;;25.90;1.00;;;;;;4970107;28;20038;-78
2023/05/14 11:24:49;;;;;;;7.07;4.47;;;26.10;2.30;;;;;;4989391;28;20030;-78
2023/05/14 11:27:16;;;;;;;4.53;4.00;;;26.10;1.00;;;;;;4982185;28;20158;-81
2023/05/14 11:29:46;;;;;;;5.80;4.28;;;26.40;99.90;;;;;;4956739;28;20057;-79
2023/05/14 11:32:13;;;;;;;4.55;4.15;;;26.50;99.90;;;;;;5018734;28;20045;-80
2023/05/14 11:34:39;;;;;;;6.07;4.07;;;27.20;1.00;;;;;;4958115;28;20041;-79
2023/05/14 11:37:07;;;;;;;4.28;3.65;;;27.70;1.00;;;;;;4976525;28;20176;-82
2023/05/14 11:39:34;;;;;;;4.38;3.97;;;27.60;99.90;;;;;;4990065;28;20042;-77
2023/05/14 11:42:11;;;;;;;5.85;4.45;;;26.70;1.00;;;;;;4983141;28;20034;-77
2023/05/14 11:44:41;;;;;;;4.78;3.83;;;26.40;18.90;;;;;;4989114;28;20049;-76
2023/05/14 11:47:06;;;;;;;6.20;3.92;;;27.20;99.90;;;;;;4974343;28;20074;-76
2023/05/14 11:49:34;;;;;;;3.60;3.30;;;27.20;99.90;;;;;;4990744;28;20278;-76
2023/05/14 11:52:05;;;;;;;4.75;3.40;;;26.10;99.90;;;;;;4989110;28;20042;-77
2023/05/14 11:54:32;;;;;;;4.10;3.50;;;26.00;94.50;;;;;;5013361;28;20047;-77
2023/05/14 11:57:00;;;;;;;6.00;3.33;;;25.70;97.00;;;;;;4989011;28;20034;-75
2023/05/14 11:59:28;;;;;;;5.05;3.80;;;25.70;99.90;;;;;;4989186;28;20038;-75
2023/05/14 12:01:54;;;;;;;4.30;3.63;;;26.30;99.90;;;;;;4973896;28;20045;-78
2023/05/14 12:04:21;;;;;;;8.57;3.53;;;26.70;99.90;;;;;;4972475;28;20044;-76
2023/05/14 12:06:51;;;;;;;3.65;3.35;;;26.60;99.90;;;;;;5000910;28;20050;-77
2023/05/14 12:09:21;;;;;;;3.92;3.50;;;26.70;99.90;;;;;;4988395;28;20521;-77
2023/05/14 12:11:52;;;;;;;5.07;3.60;;;27.00;5.70;;;;;;5007321;28;20175;-79
2023/05/14 12:14:21;;;;;;;3.47;3.17;;;26.80;99.90;;;;;;4968425;28;20373;-77
2023/05/14 12:16:48;;;;;;;4.75;3.40;;;27.20;99.90;;;;;;4987867;28;20478;-77
2023/05/14 12:19:15;;;;;;;4.05;3.55;;;27.40;99.90;;;;;;4971047;28;20037;-79
2023/05/14 12:21:47;;;;;;;5.70;3.60;;;27.20;88.20;;;;;;4997823;28;20485;-77
2023/05/14 12:24:16;;;;;;;6.35;4.35;;;27.10;98.70;;;;;;4996278;28;20037;-78
2023/05/14 12:26:49;;;;;;;3.85;3.50;;;26.70;99.90;;;;;;4972617;28;20038;-75
2023/05/14 12:29:15;;;;;;;4.70;3.55;;;26.70;96.80;;;;;;5007883;28;20035;-78
2023/05/14 12:31:46;;;;;;;4.10;3.70;;;26.70;99.90;;;;;;4993929;28;20073;-76
2023/05/14 12:34:12;;;;;;;4.25;3.42;;;26.50;99.90;;;;;;5004290;28;20021;-78
2023/05/14 12:36:37;;;;;;;5.30;3.70;;;26.70;99.90;;;;;;4972129;28;20107;-77
2023/05/14 12:39:04;;;;;;;3.85;3.50;;;26.40;99.90;;;;;;4956848;28;20374;-78